sensor_id;sensor_type;location;lat;lon;timestamp;temperature;humidity
20400;DHT22;10359;53.596;22.520;2022-10-16T00:01:39;13.90;99.90
20400;DHT22;10359;53.596;22.520;2022-10-16T00:04:08;13.80;99.90
20400;DHT22;10359;53.596;22.520;2022-10-16T00:06:38;13.80;99.90
20400;DHT22;10359;53.596;22.520;2022-10-16T00:09:08;13.80;99.90
20400;DHT22;10359;53.596;22.520;2022-10-16T00:11:40;13.70;99.90
20400;DHT22;10359;53.596;22.520;2022-10-16T00:14:12;13.50;99.90
20400;DHT22;10359;53.596;22.520;2022-10-16T00:16:45;13.40;99.90
20400;DHT22;10359;53.596;22.520;2022-10-16T00:19:14;13.30;99.90
20400;DHT22;10359;53.596;22.520;2022-10-16T00:21:43;13.20;99.90
20400;DHT22;10359;53.596;22.520;2022-10-16T00:24:14;13.10;99.90
20400;DHT22;10359;53.596;22.520;2022-10-16T00:26:44;13.10;99.90
20400;DHT22;10359;53.596;22.520;2022-10-16T00:29:13;13.10;99.90
20400;DHT22;10359;53.596;22.520;2022-10-16T00:31:43;13.00;99.90
20400;DHT22;10359;53.596;22.520;2022-10-16T00:34:12;13.00;99.90
20400;DHT22;10359;53.596;22.520;2022-10-16T00:36:41;13.00;99.90
20400;DHT22;10359;53.596;22.520;2022-10-16T00:39:10;12.90;99.90
20400;DHT22;10359;53.596;22.520;2022-10-16T00:41:41;13.00;99.90
20400;DHT22;10359;53.596;22.520;2022-10-16T00:44:43;13.10;99.90
20400;DHT22;10359;53.596;22.520;2022-10-16T00:47:19;13.20;99.90
20400;DHT22;10359;53.596;22.520;2022-10-16T00:49:51;13.30;99.90
20400;DHT22;10359;53.596;22.520;2022-10-16T00:52:22;13.40;99.90
20400;DHT22;10359;53.596;22.520;2022-10-16T00:54:54;13.50;99.90
20400;DHT22;10359;53.596;22.520;2022-10-16T00:57:25;13.50;99.90
20400;DHT22;10359;53.596;22.520;2022-10-16T01:00:00;13.60;99.90
20400;DHT22;10359;53.596;22.520;2022-10-16T01:02:30;13.70;99.90
20400;DHT22;10359;53.596;22.520;2022-10-16T01:04:59;13.70;99.90
20400;DHT22;10359;53.596;22.520;2022-10-16T01:07:36;13.80;99.90
20400;DHT22;10359;53.596;22.520;2022-10-16T01:10:12;13.80;99.90
20400;DHT22;10359;53.596;22.520;2022-10-16T01:12:51;13.70;99.90
20400;DHT22;10359;53.596;22.520;2022-10-16T01:15:26;13.80;99.90
20400;DHT22;10359;53.596;22.520;2022-10-16T01:18:01;13.80;99.90
20400;DHT22;10359;53.596;22.520;2022-10-16T01:20:37;13.80;99.90
20400;DHT22;10359;53.596;22.520;2022-10-16T01:23:18;13.80;99.90
20400;DHT22;10359;53.596;22.520;2022-10-16T01:26:10;13.80;99.90
20400;DHT22;10359;53.596;22.520;2022-10-16T01:28:47;13.80;99.90
20400;DHT22;10359;53.596;22.520;2022-10-16T01:31:23;13.80;99.90
20400;DHT22;10359;53.596;22.520;2022-10-16T01:33:56;13.80;99.90
20400;DHT22;10359;53.596;22.520;2022-10-16T01:36:34;13.80;99.90
20400;DHT22;10359;53.596;22.520;2022-10-16T01:39:05;13.70;99.90
20400;DHT22;10359;53.596;22.520;2022-10-16T01:41:38;13.80;99.90
20400;DHT22;10359;53.596;22.520;2022-10-16T01:44:13;13.80;99.90
20400;DHT22;10359;53.596;22.520;2022-10-16T01:46:46;13.80;99.90
20400;DHT22;10359;53.596;22.520;2022-10-16T01:49:18;13.80;99.90
20400;DHT22;10359;53.596;22.520;2022-10-16T01:51:50;13.80;99.90
20400;DHT22;10359;53.596;22.520;2022-10-16T01:54:23;13.80;99.90
20400;DHT22;10359;53.596;22.520;2022-10-16T01:56:55;13.80;99.90
20400;DHT22;10359;53.596;22.520;2022-10-16T01:59:31;13.70;99.90
20400;DHT22;10359;53.596;22.520;2022-10-16T02:02:03;13.70;99.90
20400;DHT22;10359;53.596;22.520;2022-10-16T02:04:37;13.70;99.90
20400;DHT22;10359;53.596;22.520;2022-10-16T02:07:07;13.70;99.90
20400;DHT22;10359;53.596;22.520;2022-10-16T02:09:38;13.70;99.90
20400;DHT22;10359;53.596;22.520;2022-10-16T02:12:11;13.70;99.90
20400;DHT22;10359;53.596;22.520;2022-10-16T02:14:47;13.60;99.90
20400;DHT22;10359;53.596;22.520;2022-10-16T02:17:17;13.60;99.90
20400;DHT22;10359;53.596;22.520;2022-10-16T02:19:48;13.60;99.90
20400;DHT22;10359;53.596;22.520;2022-10-16T02:22:22;13.60;99.90
20400;DHT22;10359;53.596;22.520;2022-10-16T02:24:57;13.60;99.90
20400;DHT22;10359;53.596;22.520;2022-10-16T02:27:32;13.60;99.90
20400;DHT22;10359;53.596;22.520;2022-10-16T02:30:07;13.60;99.90
20400;DHT22;10359;53.596;22.520;2022-10-16T02:32:39;13.70;99.90
20400;DHT22;10359;53.596;22.520;2022-10-16T02:35:09;13.70;99.90
20400;DHT22;10359;53.596;22.520;2022-10-16T02:37:39;13.70;99.90
20400;DHT22;10359;53.596;22.520;2022-10-16T02:40:10;13.70;99.90
20400;DHT22;10359;53.596;22.520;2022-10-16T02:42:40;13.70;99.90
20400;DHT22;10359;53.596;22.520;2022-10-16T02:45:11;13.80;99.90
20400;DHT22;10359;53.596;22.520;2022-10-16T02:47:40;13.80;99.90
20400;DHT22;10359;53.596;22.520;2022-10-16T02:50:09;13.90;99.90
20400;DHT22;10359;53.596;22.520;2022-10-16T02:52:38;13.90;99.90
20400;DHT22;10359;53.596;22.520;2022-10-16T02:55:07;14.00;99.90
20400;DHT22;10359;53.596;22.520;2022-10-16T02:57:36;14.00;99.90
20400;DHT22;10359;53.596;22.520;2022-10-16T03:00:11;14.00;99.90
20400;DHT22;10359;53.596;22.520;2022-10-16T03:02:40;14.00;99.90
20400;DHT22;10359;53.596;22.520;2022-10-16T03:05:10;14.00;99.90
20400;DHT22;10359;53.596;22.520;2022-10-16T03:07:39;14.10;99.90
20400;DHT22;10359;53.596;22.520;2022-10-16T03:10:08;14.10;99.90
20400;DHT22;10359;53.596;22.520;2022-10-16T03:12:37;14.10;99.90
20400;DHT22;10359;53.596;22.520;2022-10-16T03:15:07;14.20;99.90
20400;DHT22;10359;53.596;22.520;2022-10-16T03:17:38;14.20;99.90
20400;DHT22;10359;53.596;22.520;2022-10-16T03:20:07;14.20;99.90
20400;DHT22;10359;53.596;22.520;2022-10-16T03:22:36;14.10;99.90
20400;DHT22;10359;53.596;22.520;2022-10-16T03:25:06;14.00;99.90
20400;DHT22;10359;53.596;22.520;2022-10-16T03:27:35;14.00;99.90
20400;DHT22;10359;53.596;22.520;2022-10-16T03:30:05;14.00;99.90
20400;DHT22;10359;53.596;22.520;2022-10-16T03:32:34;14.00;99.90
20400;DHT22;10359;53.596;22.520;2022-10-16T03:35:05;14.00;99.90
20400;DHT22;10359;53.596;22.520;2022-10-16T03:37:35;13.90;99.90
20400;DHT22;10359;53.596;22.520;2022-10-16T03:40:05;13.80;99.90
20400;DHT22;10359;53.596;22.520;2022-10-16T03:42:34;13.90;99.90
20400;DHT22;10359;53.596;22.520;2022-10-16T03:45:03;13.90;99.90
20400;DHT22;10359;53.596;22.520;2022-10-16T03:47:32;13.90;99.90
20400;DHT22;10359;53.596;22.520;2022-10-16T03:50:02;13.90;99.90
20400;DHT22;10359;53.596;22.520;2022-10-16T03:52:33;13.80;99.90
20400;DHT22;10359;53.596;22.520;2022-10-16T03:55:01;13.80;99.90
20400;DHT22;10359;53.596;22.520;2022-10-16T03:57:30;13.90;99.90
20400;DHT22;10359;53.596;22.520;2022-10-16T03:59:59;13.90;99.90
20400;DHT22;10359;53.596;22.520;2022-10-16T04:02:28;13.90;99.90
20400;DHT22;10359;53.596;22.520;2022-10-16T04:04:57;13.80;99.90
20400;DHT22;10359;53.596;22.520;2022-10-16T04:07:26;13.80;99.90
20400;DHT22;10359;53.596;22.520;2022-10-16T04:09:57;13.80;99.90
20400;DHT22;10359;53.596;22.520;2022-10-16T04:12:26;13.80;99.90
20400;DHT22;10359;53.596;22.520;2022-10-16T04:14:55;13.80;99.90
20400;DHT22;10359;53.596;22.520;2022-10-16T04:17:24;13.80;99.90
20400;DHT22;10359;53.596;22.520;2022-10-16T04:19:54;13.90;99.90
20400;DHT22;10359;53.596;22.520;2022-10-16T04:22:23;13.90;99.90
20400;DHT22;10359;53.596;22.520;2022-10-16T04:24:53;13.90;99.90
20400;DHT22;10359;53.596;22.520;2022-10-16T04:27:23;13.90;99.90
20400;DHT22;10359;53.596;22.520;2022-10-16T04:29:53;13.90;99.90
20400;DHT22;10359;53.596;22.520;2022-10-16T04:32:22;13.80;99.90
20400;DHT22;10359;53.596;22.520;2022-10-16T04:34:51;13.80;99.90
20400;DHT22;10359;53.596;22.520;2022-10-16T04:37:23;13.80;99.90
20400;DHT22;10359;53.596;22.520;2022-10-16T04:39:53;13.80;99.90
20400;DHT22;10359;53.596;22.520;2022-10-16T04:42:24;13.80;99.90
20400;DHT22;10359;53.596;22.520;2022-10-16T04:44:53;13.80;99.90
20400;DHT22;10359;53.596;22.520;2022-10-16T04:47:22;13.80;99.90
20400;DHT22;10359;53.596;22.520;2022-10-16T04:49:51;13.80;99.90
20400;DHT22;10359;53.596;22.520;2022-10-16T04:52:20;13.80;99.90
20400;DHT22;10359;53.596;22.520;2022-10-16T04:54:52;13.90;99.90
20400;DHT22;10359;53.596;22.520;2022-10-16T04:57:22;13.80;99.90
20400;DHT22;10359;53.596;22.520;2022-10-16T04:59:52;13.90;99.90
20400;DHT22;10359;53.596;22.520;2022-10-16T05:02:21;13.80;99.90
20400;DHT22;10359;53.596;22.520;2022-10-16T05:04:50;13.90;99.90
20400;DHT22;10359;53.596;22.520;2022-10-16T05:07:19;13.90;99.90
20400;DHT22;10359;53.596;22.520;2022-10-16T05:09:48;13.90;99.90
20400;DHT22;10359;53.596;22.520;2022-10-16T05:12:17;13.90;99.90
20400;DHT22;10359;53.596;22.520;2022-10-16T05:14:48;13.90;99.90
20400;DHT22;10359;53.596;22.520;2022-10-16T05:17:17;13.90;99.90
20400;DHT22;10359;53.596;22.520;2022-10-16T05:19:46;13.90;99.90
20400;DHT22;10359;53.596;22.520;2022-10-16T05:22:15;14.00;99.90
20400;DHT22;10359;53.596;22.520;2022-10-16T05:24:44;14.00;99.90
20400;DHT22;10359;53.596;22.520;2022-10-16T05:27:13;14.00;99.90
20400;DHT22;10359;53.596;22.520;2022-10-16T05:29:48;14.00;99.90
20400;DHT22;10359;53.596;22.520;2022-10-16T05:32:18;14.00;99.90
20400;DHT22;10359;53.596;22.520;2022-10-16T05:34:47;13.90;99.90
20400;DHT22;10359;53.596;22.520;2022-10-16T05:37:16;14.00;99.90
20400;DHT22;10359;53.596;22.520;2022-10-16T05:39:44;14.00;99.90
20400;DHT22;10359;53.596;22.520;2022-10-16T05:42:13;14.10;99.90
20400;DHT22;10359;53.596;22.520;2022-10-16T05:44:43;14.10;99.90
20400;DHT22;10359;53.596;22.520;2022-10-16T05:47:14;14.20;99.90
20400;DHT22;10359;53.596;22.520;2022-10-16T05:49:43;14.20;99.90
20400;DHT22;10359;53.596;22.520;2022-10-16T05:52:12;14.00;99.90
20400;DHT22;10359;53.596;22.520;2022-10-16T05:54:41;14.30;99.90
20400;DHT22;10359;53.596;22.520;2022-10-16T05:57:10;14.40;99.90
20400;DHT22;10359;53.596;22.520;2022-10-16T05:59:39;14.50;99.90
20400;DHT22;10359;53.596;22.520;2022-10-16T06:02:13;14.50;99.90
20400;DHT22;10359;53.596;22.520;2022-10-16T06:04:42;14.40;99.90
20400;DHT22;10359;53.596;22.520;2022-10-16T06:07:11;14.60;99.90
20400;DHT22;10359;53.596;22.520;2022-10-16T06:09:40;14.60;99.90
20400;DHT22;10359;53.596;22.520;2022-10-16T06:12:10;14.60;99.90
20400;DHT22;10359;53.596;22.520;2022-10-16T06:14:41;14.50;99.90
20400;DHT22;10359;53.596;22.520;2022-10-16T06:17:10;14.60;99.90
20400;DHT22;10359;53.596;22.520;2022-10-16T06:19:41;14.60;99.90
20400;DHT22;10359;53.596;22.520;2022-10-16T06:22:10;14.50;99.90
20400;DHT22;10359;53.596;22.520;2022-10-16T06:24:40;14.30;99.90
20400;DHT22;10359;53.596;22.520;2022-10-16T06:27:09;14.40;99.90
20400;DHT22;10359;53.596;22.520;2022-10-16T06:29:38;14.30;99.90
20400;DHT22;10359;53.596;22.520;2022-10-16T06:32:06;14.20;99.90
20400;DHT22;10359;53.596;22.520;2022-10-16T06:34:35;14.20;99.90
20400;DHT22;10359;53.596;22.520;2022-10-16T06:37:10;14.20;99.90
20400;DHT22;10359;53.596;22.520;2022-10-16T06:39:39;14.10;99.90
20400;DHT22;10359;53.596;22.520;2022-10-16T06:42:08;14.10;99.90
20400;DHT22;10359;53.596;22.520;2022-10-16T06:44:37;14.20;99.90
20400;DHT22;10359;53.596;22.520;2022-10-16T06:47:06;14.00;99.90
20400;DHT22;10359;53.596;22.520;2022-10-16T06:49:35;14.10;99.90
20400;DHT22;10359;53.596;22.520;2022-10-16T06:52:03;14.30;99.90
20400;DHT22;10359;53.596;22.520;2022-10-16T06:54:34;14.20;99.90
20400;DHT22;10359;53.596;22.520;2022-10-16T06:57:08;14.30;99.90
20400;DHT22;10359;53.596;22.520;2022-10-16T06:59:37;14.40;99.90
20400;DHT22;10359;53.596;22.520;2022-10-16T07:02:11;14.50;99.90
20400;DHT22;10359;53.596;22.520;2022-10-16T07:04:40;14.60;99.90
20400;DHT22;10359;53.596;22.520;2022-10-16T07:07:08;14.60;99.90
20400;DHT22;10359;53.596;22.520;2022-10-16T07:09:40;14.70;99.90
20400;DHT22;10359;53.596;22.520;2022-10-16T07:12:09;14.80;99.90
20400;DHT22;10359;53.596;22.520;2022-10-16T07:14:38;14.70;99.90
20400;DHT22;10359;53.596;22.520;2022-10-16T07:17:07;14.60;99.90
20400;DHT22;10359;53.596;22.520;2022-10-16T07:19:36;14.60;99.90
20400;DHT22;10359;53.596;22.520;2022-10-16T07:22:04;14.30;99.90
20400;DHT22;10359;53.596;22.520;2022-10-16T07:24:33;14.30;99.90
20400;DHT22;10359;53.596;22.520;2022-10-16T07:27:04;14.30;99.90
20400;DHT22;10359;53.596;22.520;2022-10-16T07:29:33;14.40;99.90
20400;DHT22;10359;53.596;22.520;2022-10-16T07:32:02;14.60;99.90
20400;DHT22;10359;53.596;22.520;2022-10-16T07:34:31;14.60;99.90
20400;DHT22;10359;53.596;22.520;2022-10-16T07:37:00;14.70;99.90
20400;DHT22;10359;53.596;22.520;2022-10-16T07:39:29;14.70;99.90
20400;DHT22;10359;53.596;22.520;2022-10-16T07:41:58;14.90;99.90
20400;DHT22;10359;53.596;22.520;2022-10-16T07:44:28;15.10;99.90
20400;DHT22;10359;53.596;22.520;2022-10-16T07:46:57;15.20;99.90
20400;DHT22;10359;53.596;22.520;2022-10-16T07:49:26;15.40;99.90
20400;DHT22;10359;53.596;22.520;2022-10-16T07:51:55;15.40;99.90
20400;DHT22;10359;53.596;22.520;2022-10-16T07:54:25;15.50;99.90
20400;DHT22;10359;53.596;22.520;2022-10-16T07:56:53;15.50;99.90
20400;DHT22;10359;53.596;22.520;2022-10-16T07:59:22;15.50;99.90
20400;DHT22;10359;53.596;22.520;2022-10-16T08:01:53;15.90;99.90
20400;DHT22;10359;53.596;22.520;2022-10-16T08:04:22;16.10;99.90
20400;DHT22;10359;53.596;22.520;2022-10-16T08:06:51;16.30;99.90
20400;DHT22;10359;53.596;22.520;2022-10-16T08:09:21;16.60;99.90
20400;DHT22;10359;53.596;22.520;2022-10-16T08:11:50;16.80;99.90
20400;DHT22;10359;53.596;22.520;2022-10-16T08:14:22;17.00;99.90
20400;DHT22;10359;53.596;22.520;2022-10-16T08:16:53;17.20;99.90
20400;DHT22;10359;53.596;22.520;2022-10-16T08:19:22;17.20;99.90
20400;DHT22;10359;53.596;22.520;2022-10-16T08:21:51;17.30;99.90
20400;DHT22;10359;53.596;22.520;2022-10-16T08:24:20;17.00;99.90
20400;DHT22;10359;53.596;22.520;2022-10-16T08:26:48;17.10;99.90
20400;DHT22;10359;53.596;22.520;2022-10-16T08:29:17;17.10;99.90
20400;DHT22;10359;53.596;22.520;2022-10-16T08:31:46;17.20;99.90
20400;DHT22;10359;53.596;22.520;2022-10-16T08:34:17;17.10;99.90
20400;DHT22;10359;53.596;22.520;2022-10-16T08:36:46;17.10;99.90
20400;DHT22;10359;53.596;22.520;2022-10-16T08:39:15;16.90;99.90
20400;DHT22;10359;53.596;22.520;2022-10-16T08:42:09;17.00;99.90
20400;DHT22;10359;53.596;22.520;2022-10-16T08:44:55;17.20;99.90
20400;DHT22;10359;53.596;22.520;2022-10-16T08:47:40;17.10;99.90
20400;DHT22;10359;53.596;22.520;2022-10-16T08:50:17;17.10;99.90
20400;DHT22;10359;53.596;22.520;2022-10-16T08:52:47;17.10;99.90
20400;DHT22;10359;53.596;22.520;2022-10-16T08:55:28;17.10;99.90
20400;DHT22;10359;53.596;22.520;2022-10-16T08:58:00;17.10;99.90
20400;DHT22;10359;53.596;22.520;2022-10-16T09:00:30;17.10;99.90
20400;DHT22;10359;53.596;22.520;2022-10-16T09:03:04;17.00;99.90
20400;DHT22;10359;53.596;22.520;2022-10-16T09:08:42;16.80;99.90
20400;DHT22;10359;53.596;22.520;2022-10-16T09:11:20;17.10;99.90
20400;DHT22;10359;53.596;22.520;2022-10-16T09:13:59;17.30;99.90
20400;DHT22;10359;53.596;22.520;2022-10-16T09:16:35;17.60;99.90
20400;DHT22;10359;53.596;22.520;2022-10-16T09:19:12;17.50;99.90
20400;DHT22;10359;53.596;22.520;2022-10-16T09:21:45;17.40;99.90
20400;DHT22;10359;53.596;22.520;2022-10-16T09:24:16;17.30;99.90
20400;DHT22;10359;53.596;22.520;2022-10-16T09:26:46;17.60;99.90
20400;DHT22;10359;53.596;22.520;2022-10-16T09:29:16;17.60;99.90
20400;DHT22;10359;53.596;22.520;2022-10-16T09:31:47;17.60;99.90
20400;DHT22;10359;53.596;22.520;2022-10-16T09:34:23;17.80;99.90
20400;DHT22;10359;53.596;22.520;2022-10-16T09:36:56;17.80;99.90
20400;DHT22;10359;53.596;22.520;2022-10-16T09:39:26;17.80;99.90
20400;DHT22;10359;53.596;22.520;2022-10-16T09:41:55;17.80;99.90
20400;DHT22;10359;53.596;22.520;2022-10-16T09:44:27;17.70;99.90
20400;DHT22;10359;53.596;22.520;2022-10-16T09:47:04;17.50;99.90
20400;DHT22;10359;53.596;22.520;2022-10-16T09:49:33;17.60;99.90
20400;DHT22;10359;53.596;22.520;2022-10-16T09:52:13;17.50;99.90
20400;DHT22;10359;53.596;22.520;2022-10-16T09:54:50;17.80;99.90
20400;DHT22;10359;53.596;22.520;2022-10-16T09:57:20;17.90;99.90
20400;DHT22;10359;53.596;22.520;2022-10-16T09:59:51;17.90;99.90
20400;DHT22;10359;53.596;22.520;2022-10-16T10:02:26;18.00;99.90
20400;DHT22;10359;53.596;22.520;2022-10-16T10:04:56;18.20;99.90
20400;DHT22;10359;53.596;22.520;2022-10-16T10:07:30;18.30;99.90
20400;DHT22;10359;53.596;22.520;2022-10-16T10:10:03;18.50;99.90
20400;DHT22;10359;53.596;22.520;2022-10-16T10:12:33;18.70;99.90
20400;DHT22;10359;53.596;22.520;2022-10-16T10:15:06;18.40;99.90
20400;DHT22;10359;53.596;22.520;2022-10-16T10:17:46;18.50;99.90
20400;DHT22;10359;53.596;22.520;2022-10-16T10:20:22;18.50;99.90
20400;DHT22;10359;53.596;22.520;2022-10-16T10:22:54;18.60;99.90
20400;DHT22;10359;53.596;22.520;2022-10-16T10:25:47;19.00;99.90
20400;DHT22;10359;53.596;22.520;2022-10-16T10:28:35;19.10;99.90
20400;DHT22;10359;53.596;22.520;2022-10-16T10:31:10;19.10;99.90
20400;DHT22;10359;53.596;22.520;2022-10-16T10:33:44;19.00;99.90
20400;DHT22;10359;53.596;22.520;2022-10-16T10:36:25;19.20;99.90
20400;DHT22;10359;53.596;22.520;2022-10-16T10:39:00;19.10;99.90
20400;DHT22;10359;53.596;22.520;2022-10-16T10:41:54;19.30;99.90
20400;DHT22;10359;53.596;22.520;2022-10-16T10:44:37;19.40;99.90
20400;DHT22;10359;53.596;22.520;2022-10-16T10:47:18;19.60;99.90
20400;DHT22;10359;53.596;22.520;2022-10-16T10:49:57;19.50;99.90
20400;DHT22;10359;53.596;22.520;2022-10-16T10:52:53;19.20;99.90
20400;DHT22;10359;53.596;22.520;2022-10-16T10:55:37;19.10;99.90
20400;DHT22;10359;53.596;22.520;2022-10-16T11:01:14;19.50;99.90
20400;DHT22;10359;53.596;22.520;2022-10-16T11:04:09;19.80;99.90
20400;DHT22;10359;53.596;22.520;2022-10-16T11:06:43;19.90;99.90
20400;DHT22;10359;53.596;22.520;2022-10-16T11:09:17;20.10;99.90
20400;DHT22;10359;53.596;22.520;2022-10-16T11:11:52;20.00;99.90
20400;DHT22;10359;53.596;22.520;2022-10-16T11:14:30;20.10;99.90
20400;DHT22;10359;53.596;22.520;2022-10-16T11:17:08;20.10;99.90
20400;DHT22;10359;53.596;22.520;2022-10-16T11:19:43;20.20;99.90
20400;DHT22;10359;53.596;22.520;2022-10-16T11:22:18;20.30;99.90
20400;DHT22;10359;53.596;22.520;2022-10-16T11:24:53;20.40;99.90
20400;DHT22;10359;53.596;22.520;2022-10-16T11:27:30;20.60;99.90
20400;DHT22;10359;53.596;22.520;2022-10-16T11:30:04;20.70;99.90
20400;DHT22;10359;53.596;22.520;2022-10-16T11:32:38;20.50;99.90
20400;DHT22;10359;53.596;22.520;2022-10-16T11:35:17;20.90;99.90
20400;DHT22;10359;53.596;22.520;2022-10-16T11:37:48;20.90;99.90
20400;DHT22;10359;53.596;22.520;2022-10-16T11:40:22;20.90;99.90
20400;DHT22;10359;53.596;22.520;2022-10-16T11:42:59;21.00;99.90
20400;DHT22;10359;53.596;22.520;2022-10-16T11:45:34;21.20;99.90
20400;DHT22;10359;53.596;22.520;2022-10-16T11:48:15;21.10;99.90
20400;DHT22;10359;53.596;22.520;2022-10-16T11:50:51;21.30;99.90
20400;DHT22;10359;53.596;22.520;2022-10-16T11:53:35;21.20;99.90
20400;DHT22;10359;53.596;22.520;2022-10-16T11:56:07;21.20;99.90
20400;DHT22;10359;53.596;22.520;2022-10-16T11:58:41;21.10;99.90
20400;DHT22;10359;53.596;22.520;2022-10-16T12:01:18;21.10;99.90
20400;DHT22;10359;53.596;22.520;2022-10-16T12:04:11;20.80;99.90
20400;DHT22;10359;53.596;22.520;2022-10-16T12:06:44;20.60;99.90
20400;DHT22;10359;53.596;22.520;2022-10-16T12:09:20;20.40;99.90
20400;DHT22;10359;53.596;22.520;2022-10-16T12:11:50;20.40;99.90
20400;DHT22;10359;53.596;22.520;2022-10-16T12:17:34;20.00;99.90
20400;DHT22;10359;53.596;22.520;2022-10-16T12:20:21;19.90;99.90
20400;DHT22;10359;53.596;22.520;2022-10-16T12:22:53;19.90;99.90
20400;DHT22;10359;53.596;22.520;2022-10-16T12:25:25;19.90;99.90
20400;DHT22;10359;53.596;22.520;2022-10-16T12:27:58;19.70;99.90
20400;DHT22;10359;53.596;22.520;2022-10-16T12:30:31;19.70;99.90
20400;DHT22;10359;53.596;22.520;2022-10-16T12:33:03;19.40;99.90
20400;DHT22;10359;53.596;22.520;2022-10-16T12:35:35;19.50;99.90
20400;DHT22;10359;53.596;22.520;2022-10-16T12:38:19;19.50;99.90
20400;DHT22;10359;53.596;22.520;2022-10-16T12:40:56;19.60;99.90
20400;DHT22;10359;53.596;22.520;2022-10-16T12:43:36;19.50;99.90
20400;DHT22;10359;53.596;22.520;2022-10-16T12:46:23;19.50;99.90
20400;DHT22;10359;53.596;22.520;2022-10-16T12:48:52;19.40;99.90
20400;DHT22;10359;53.596;22.520;2022-10-16T12:51:36;19.50;99.90
20400;DHT22;10359;53.596;22.520;2022-10-16T12:54:12;19.50;99.90
20400;DHT22;10359;53.596;22.520;2022-10-16T12:56:48;19.60;99.90
20400;DHT22;10359;53.596;22.520;2022-10-16T12:59:28;19.60;99.90
20400;DHT22;10359;53.596;22.520;2022-10-16T13:02:34;19.40;99.90
20400;DHT22;10359;53.596;22.520;2022-10-16T13:05:29;19.50;99.90
20400;DHT22;10359;53.596;22.520;2022-10-16T13:08:20;19.40;99.90
20400;DHT22;10359;53.596;22.520;2022-10-16T13:11:02;19.40;99.90
20400;DHT22;10359;53.596;22.520;2022-10-16T13:16:30;19.70;99.90
20400;DHT22;10359;53.596;22.520;2022-10-16T13:19:14;19.70;99.90
20400;DHT22;10359;53.596;22.520;2022-10-16T13:21:51;19.70;99.90
20400;DHT22;10359;53.596;22.520;2022-10-16T13:24:31;19.80;99.90
20400;DHT22;10359;53.596;22.520;2022-10-16T13:27:09;19.90;99.90
20400;DHT22;10359;53.596;22.520;2022-10-16T13:29:42;19.70;99.90
20400;DHT22;10359;53.596;22.520;2022-10-16T13:32:14;19.70;99.90
20400;DHT22;10359;53.596;22.520;2022-10-16T13:34:47;19.60;99.90
20400;DHT22;10359;53.596;22.520;2022-10-16T13:37:18;19.50;99.90
20400;DHT22;10359;53.596;22.520;2022-10-16T13:39:48;19.50;99.90
20400;DHT22;10359;53.596;22.520;2022-10-16T13:42:23;19.60;99.90
20400;DHT22;10359;53.596;22.520;2022-10-16T13:44:56;19.60;99.90
20400;DHT22;10359;53.596;22.520;2022-10-16T13:47:27;19.80;99.90
20400;DHT22;10359;53.596;22.520;2022-10-16T13:50:04;19.70;99.90
20400;DHT22;10359;53.596;22.520;2022-10-16T13:52:34;19.70;99.90
20400;DHT22;10359;53.596;22.520;2022-10-16T13:55:03;19.80;99.90
20400;DHT22;10359;53.596;22.520;2022-10-16T13:57:32;19.80;99.90
20400;DHT22;10359;53.596;22.520;2022-10-16T14:00:02;19.60;99.90
20400;DHT22;10359;53.596;22.520;2022-10-16T14:02:34;19.60;99.90
20400;DHT22;10359;53.596;22.520;2022-10-16T14:05:09;19.40;99.90
20400;DHT22;10359;53.596;22.520;2022-10-16T14:07:38;19.20;99.90
20400;DHT22;10359;53.596;22.520;2022-10-16T14:10:21;19.10;99.90
20400;DHT22;10359;53.596;22.520;2022-10-16T14:12:57;18.90;99.90
20400;DHT22;10359;53.596;22.520;2022-10-16T14:15:28;18.80;99.90
20400;DHT22;10359;53.596;22.520;2022-10-16T14:17:58;18.70;99.90
20400;DHT22;10359;53.596;22.520;2022-10-16T14:20:31;18.70;99.90
20400;DHT22;10359;53.596;22.520;2022-10-16T14:23:02;18.70;99.90
20400;DHT22;10359;53.596;22.520;2022-10-16T14:25:32;18.70;99.90
20400;DHT22;10359;53.596;22.520;2022-10-16T14:28:03;18.60;99.90
20400;DHT22;10359;53.596;22.520;2022-10-16T14:30:34;18.60;99.90
20400;DHT22;10359;53.596;22.520;2022-10-16T14:33:05;18.50;99.90
20400;DHT22;10359;53.596;22.520;2022-10-16T14:35:39;18.30;99.90
20400;DHT22;10359;53.596;22.520;2022-10-16T14:38:18;18.10;99.90
20400;DHT22;10359;53.596;22.520;2022-10-16T14:40:49;18.10;99.90
20400;DHT22;10359;53.596;22.520;2022-10-16T14:43:22;17.90;99.90
20400;DHT22;10359;53.596;22.520;2022-10-16T14:45:54;17.80;99.90
20400;DHT22;10359;53.596;22.520;2022-10-16T14:48:24;17.80;99.90
20400;DHT22;10359;53.596;22.520;2022-10-16T14:50:54;17.70;99.90
20400;DHT22;10359;53.596;22.520;2022-10-16T14:53:24;17.70;99.90
20400;DHT22;10359;53.596;22.520;2022-10-16T14:55:52;17.70;99.90
20400;DHT22;10359;53.596;22.520;2022-10-16T14:58:22;17.60;99.90
20400;DHT22;10359;53.596;22.520;2022-10-16T15:00:55;17.60;99.90
20400;DHT22;10359;53.596;22.520;2022-10-16T15:03:24;17.50;99.90
20400;DHT22;10359;53.596;22.520;2022-10-16T15:05:55;17.50;99.90
20400;DHT22;10359;53.596;22.520;2022-10-16T15:08:23;17.50;99.90
20400;DHT22;10359;53.596;22.520;2022-10-16T15:10:52;17.50;99.90
20400;DHT22;10359;53.596;22.520;2022-10-16T15:13:23;17.40;99.90
20400;DHT22;10359;53.596;22.520;2022-10-16T15:15:56;17.40;99.90
20400;DHT22;10359;53.596;22.520;2022-10-16T15:18:25;17.50;99.90
20400;DHT22;10359;53.596;22.520;2022-10-16T15:20:56;17.50;99.90
20400;DHT22;10359;53.596;22.520;2022-10-16T15:23:25;17.40;99.90
20400;DHT22;10359;53.596;22.520;2022-10-16T15:25:55;17.30;99.90
20400;DHT22;10359;53.596;22.520;2022-10-16T15:28:25;17.20;99.90
20400;DHT22;10359;53.596;22.520;2022-10-16T15:30:55;17.00;99.90
20400;DHT22;10359;53.596;22.520;2022-10-16T15:33:27;16.90;99.90
20400;DHT22;10359;53.596;22.520;2022-10-16T15:36:07;16.80;99.90
20400;DHT22;10359;53.596;22.520;2022-10-16T15:38:36;16.80;99.90
20400;DHT22;10359;53.596;22.520;2022-10-16T15:41:05;16.70;99.90
20400;DHT22;10359;53.596;22.520;2022-10-16T15:43:34;16.70;99.90
20400;DHT22;10359;53.596;22.520;2022-10-16T15:46:05;16.70;99.90
20400;DHT22;10359;53.596;22.520;2022-10-16T15:48:35;16.80;99.90
20400;DHT22;10359;53.596;22.520;2022-10-16T15:51:07;16.90;99.90
20400;DHT22;10359;53.596;22.520;2022-10-16T15:53:36;16.90;99.90
20400;DHT22;10359;53.596;22.520;2022-10-16T15:56:07;16.90;99.90
20400;DHT22;10359;53.596;22.520;2022-10-16T15:58:36;17.00;99.90
20400;DHT22;10359;53.596;22.520;2022-10-16T16:01:05;17.10;99.90